createdAt,value
2023-02-27T00:02:23.812Z,2.07
2023-02-27T00:05:42.612Z,2.26
2023-02-27T00:08:47.895Z,2.31
2023-02-27T00:11:52.890Z,2.19
2023-02-27T00:14:55.710Z,2.18
2023-02-27T00:17:59.629Z,2.27
2023-02-27T00:21:02.552Z,2.11
2023-02-27T00:24:05.570Z,2.32
2023-02-27T00:27:08.280Z,2.20
2023-02-27T00:30:15.752Z,2.10
2023-02-27T00:33:18.739Z,2.10
2023-02-27T00:36:26.292Z,2.05
2023-02-27T00:39:33.451Z,2.02
2023-02-27T00:42:36.408Z,2.11
2023-02-27T00:45:46.710Z,2.21
2023-02-27T00:48:54.485Z,2.23
2023-02-27T00:51:58.550Z,2.17
2023-02-27T00:55:01.268Z,2.45
2023-02-27T00:58:04.182Z,2.44
2023-02-27T01:01:06.848Z,2.26
2023-02-27T01:04:09.725Z,2.01
2023-02-27T01:07:13.297Z,2.10
2023-02-27T01:10:18.403Z,2.17
2023-02-27T01:13:21.127Z,2.23
2023-02-27T01:16:24.398Z,2.04
2023-02-27T01:19:27.311Z,2.08
2023-02-27T01:22:30.036Z,2.22
2023-02-27T01:25:32.493Z,2.09
2023-02-27T01:28:35.304Z,2.16
2023-02-27T01:31:37.779Z,1.93
2023-02-27T01:34:42.760Z,1.97
2023-02-27T01:37:47.482Z,1.88
2023-02-27T01:44:31.549Z,1.94
2023-02-27T01:47:34.611Z,1.88
2023-02-27T01:50:42.210Z,1.94
2023-02-27T01:53:51.229Z,1.99
2023-02-27T01:56:56.704Z,2.04
2023-02-27T01:59:59.481Z,1.99
2023-02-27T02:03:22.150Z,2.19
2023-02-27T02:06:32.273Z,2.33
2023-02-27T02:09:40.154Z,2.29
2023-02-27T02:12:45.489Z,2.03
2023-02-27T02:16:15.400Z,2.04
2023-02-27T02:19:51.070Z,2.11
2023-02-27T02:23:50.946Z,2.09
2023-02-27T02:27:09.458Z,1.91
2023-02-27T02:30:44.454Z,1.74
2023-02-27T02:34:16.938Z,1.89
2023-02-27T02:37:51.776Z,1.54
2023-02-27T02:41:01.290Z,1.55
2023-02-27T02:44:25.616Z,1.71
2023-02-27T02:47:46.650Z,1.67
2023-02-27T02:51:11.517Z,1.85
2023-02-27T02:54:21.588Z,1.56
2023-02-27T02:57:35.639Z,1.50
2023-02-27T03:00:51.382Z,1.69
2023-02-27T03:04:07.469Z,1.71
2023-02-27T03:07:22.559Z,1.55
2023-02-27T03:10:44.248Z,1.66
2023-02-27T03:14:06.184Z,1.51
2023-02-27T03:17:20.307Z,1.75
2023-02-27T03:20:29.446Z,1.72
2023-02-27T03:23:42.975Z,1.61
2023-02-27T03:26:51.563Z,1.32
2023-02-27T03:30:00.560Z,1.55
2023-02-27T03:33:17.210Z,1.36
2023-02-27T03:36:50.019Z,1.54
2023-02-27T03:40:06.721Z,1.55
2023-02-27T03:43:24.832Z,1.43
2023-02-27T03:46:30.138Z,1.33
2023-02-27T03:49:33.311Z,1.47
2023-02-27T03:52:35.895Z,1.50
2023-02-27T03:55:45.919Z,1.51
2023-02-27T03:58:48.469Z,1.68
2023-02-27T04:01:55.575Z,1.52
2023-02-27T04:04:58.663Z,1.52
2023-02-27T04:08:16.441Z,1.60
2023-02-27T04:11:45.238Z,1.53
2023-02-27T04:14:56.231Z,1.33
2023-02-27T04:18:20.166Z,1.61
2023-02-27T04:21:34.801Z,1.51
2023-02-27T04:25:15.471Z,1.50
2023-02-27T04:28:45.713Z,1.41
2023-02-27T04:31:50.953Z,1.60
2023-02-27T04:35:04.052Z,1.66
2023-02-27T04:38:21.680Z,1.39
2023-02-27T04:41:32.841Z,1.41
2023-02-27T04:44:38.630Z,1.45
2023-02-27T04:47:48.779Z,1.51
2023-02-27T04:51:00.364Z,1.67
2023-02-27T04:54:11.012Z,1.82
2023-02-27T04:57:19.899Z,2.19
2023-02-27T05:00:26.785Z,1.77
2023-02-27T05:03:35.587Z,1.91
2023-02-27T05:06:41.586Z,1.78
2023-02-27T05:09:52.351Z,1.68
2023-02-27T05:12:59.629Z,1.66
2023-02-27T05:16:20.415Z,1.73
2023-02-27T05:19:33.926Z,1.72
2023-02-27T05:22:53.588Z,1.74
2023-02-27T05:26:02.341Z,1.59
2023-02-27T05:29:28.124Z,1.93
2023-02-27T05:32:33.928Z,1.73
2023-02-27T05:35:52.376Z,1.76
2023-02-27T05:39:00.091Z,1.82
2023-02-27T05:42:12.018Z,1.89
2023-02-27T05:45:20.372Z,2.02
2023-02-27T05:48:30.426Z,1.83
2023-02-27T05:51:35.830Z,1.53
2023-02-27T05:54:44.730Z,1.48
2023-02-27T05:58:01.449Z,1.47
2023-02-27T06:01:07.273Z,1.46
2023-02-27T06:04:10.238Z,1.36
2023-02-27T06:07:14.864Z,2.16
2023-02-27T06:10:19.680Z,2.20
2023-02-27T06:13:23.918Z,2.30
2023-02-27T06:16:27.158Z,2.41
2023-02-27T06:19:29.787Z,2.17
2023-02-27T06:22:33.399Z,2.10
2023-02-27T06:25:35.906Z,1.92
2023-02-27T06:28:38.825Z,1.71
2023-02-27T06:31:41.261Z,1.54
2023-02-27T06:34:46.127Z,1.54
2023-02-27T06:37:51.064Z,1.54
2023-02-27T06:40:56.317Z,1.70
2023-02-27T06:43:58.801Z,1.67
2023-02-27T06:47:01.540Z,1.62
2023-02-27T06:50:11.294Z,1.55
2023-02-27T06:53:14.016Z,1.46
2023-02-27T06:56:16.478Z,1.57
2023-02-27T06:59:19.212Z,1.62
2023-02-27T07:02:23.875Z,1.77
2023-02-27T07:05:26.643Z,1.93
2023-02-27T07:08:29.298Z,1.98
2023-02-27T07:11:32.042Z,1.99
2023-02-27T07:14:36.602Z,1.98
2023-02-27T07:17:39.677Z,2.06
2023-02-27T07:20:42.884Z,2.01
2023-02-27T07:23:45.740Z,2.01
2023-02-27T07:26:48.384Z,2.06
2023-02-27T07:29:51.107Z,2.03
2023-02-27T07:32:53.643Z,2.12
2023-02-27T07:35:56.478Z,2.24
2023-02-27T07:38:59.529Z,2.42
2023-02-27T07:42:05.248Z,2.12
2023-02-27T07:45:11.562Z,2.12
2023-02-27T07:48:14.327Z,2.11
2023-02-27T07:51:16.833Z,2.01
2023-02-27T07:54:22.105Z,1.97
2023-02-27T07:57:26.892Z,2.11
2023-02-27T08:00:29.813Z,2.11
2023-02-27T08:03:32.749Z,2.06
2023-02-27T08:06:35.230Z,2.08
2023-02-27T08:09:38.118Z,2.18
2023-02-27T08:12:40.775Z,2.32
2023-02-27T08:15:43.573Z,2.35
2023-02-27T08:18:46.043Z,2.39
2023-02-27T08:21:51.554Z,2.49
2023-02-27T08:24:54.095Z,2.77
2023-02-27T08:27:56.951Z,2.73
2023-02-27T08:31:01.642Z,2.71
2023-02-27T08:34:10.205Z,2.81
2023-02-27T08:37:13.255Z,3.00
2023-02-27T08:40:17.163Z,3.31
2023-02-27T08:43:26.163Z,3.47
2023-02-27T08:46:29.285Z,3.75
2023-02-27T08:49:32.178Z,3.56
2023-02-27T08:52:35.061Z,3.82
2023-02-27T08:55:37.740Z,4.13
2023-02-27T08:58:42.687Z,4.28
2023-02-27T09:01:47.764Z,4.56
2023-02-27T09:04:50.533Z,4.08
2023-02-27T09:07:53.211Z,3.92
2023-02-27T09:10:57.287Z,3.97
2023-02-27T09:13:59.818Z,3.58
2023-02-27T09:17:06.522Z,3.48
2023-02-27T09:20:10.788Z,3.36
2023-02-27T09:23:13.528Z,3.48
2023-02-27T09:26:17.140Z,3.31
2023-02-27T09:29:23.911Z,3.46
2023-02-27T09:32:27.206Z,3.61
2023-02-27T09:35:32.284Z,3.63
2023-02-27T09:38:40.983Z,3.70
2023-02-27T09:42:09.874Z,4.01
2023-02-27T09:45:24.863Z,4.11
2023-02-27T09:52:51.061Z,3.97
2023-02-27T09:56:00.890Z,4.12
2023-02-27T09:59:22.330Z,4.01
2023-02-27T10:02:44.183Z,4.00
2023-02-27T10:06:17.375Z,3.94
2023-02-27T10:09:33.521Z,3.72
2023-02-27T10:13:10.936Z,3.84
2023-02-27T10:16:22.037Z,3.93
2023-02-27T10:19:39.770Z,4.11
2023-02-27T10:22:50.617Z,4.19
